createdAt,value
2022-08-24T00:00:39.095Z,61.64
2022-08-24T00:03:07.386Z,61.03
2022-08-24T00:05:36.569Z,61.51
2022-08-24T00:08:04.938Z,61.25
2022-08-24T00:10:32.813Z,61.44
2022-08-24T00:13:00.465Z,61.68
2022-08-24T00:15:28.148Z,61.67
2022-08-24T00:17:55.799Z,61.85
2022-08-24T00:20:24.302Z,61.95
2022-08-24T00:22:53.668Z,61.66
2022-08-24T00:25:21.365Z,62.20
2022-08-24T00:27:49.197Z,61.23
2022-08-24T00:30:19.890Z,61.61
2022-08-24T00:32:49.130Z,61.90
2022-08-24T00:35:19.697Z,61.56
2022-08-24T00:37:49.399Z,61.81
2022-08-24T00:40:23.367Z,61.94
2022-08-24T00:42:51.994Z,61.67
2022-08-24T00:45:21.251Z,62.71
2022-08-24T00:47:56.808Z,61.67
2022-08-24T00:50:40.563Z,61.53
2022-08-24T00:53:12.979Z,61.75
2022-08-24T00:55:45.206Z,61.97
2022-08-24T00:58:20.594Z,62.22
2022-08-24T01:00:53.926Z,61.62
2022-08-24T01:03:22.296Z,62.04
2022-08-24T01:05:49.972Z,62.28
2022-08-24T01:08:17.982Z,61.72
2022-08-24T01:10:50.687Z,61.92
2022-08-24T01:13:18.859Z,62.04
2022-08-24T01:15:48.778Z,61.90
2022-08-24T01:18:37.482Z,62.30
2022-08-24T01:21:12.925Z,62.17
2022-08-24T01:23:44.348Z,62.00
2022-08-24T01:26:16.041Z,62.24
2022-08-24T01:28:46.869Z,62.50
2022-08-24T01:31:14.697Z,62.14
2022-08-24T01:33:42.809Z,62.16
2022-08-24T01:36:16.939Z,62.55
2022-08-24T01:38:46.375Z,62.18
2022-08-24T01:41:14.287Z,62.82
2022-08-24T01:43:42.349Z,62.12
2022-08-24T01:46:10.691Z,63.13
2022-08-24T01:48:38.379Z,62.26
2022-08-24T01:51:06.353Z,62.19
2022-08-24T01:53:33.968Z,63.10
2022-08-24T01:56:02.955Z,62.75
2022-08-24T01:58:30.566Z,62.61
2022-08-24T02:00:58.441Z,63.07
2022-08-24T02:03:30.333Z,63.41
2022-08-24T02:05:59.008Z,62.49
2022-08-24T02:08:26.683Z,63.01
2022-08-24T02:10:56.865Z,62.40
2022-08-24T02:13:27.052Z,62.52
2022-08-24T02:15:54.719Z,62.48
2022-08-24T02:18:22.310Z,62.00
2022-08-24T02:20:50.197Z,63.05
2022-08-24T02:23:17.751Z,62.79
2022-08-24T02:25:45.427Z,62.73
2022-08-24T02:28:12.994Z,63.37
2022-08-24T02:30:42.059Z,63.51
2022-08-24T02:33:09.705Z,63.76
2022-08-24T02:35:37.486Z,63.64
2022-08-24T02:38:05.087Z,63.03
2022-08-24T02:40:33.126Z,63.31
2022-08-24T02:43:00.700Z,63.22
2022-08-24T02:45:28.459Z,62.86
2022-08-24T02:47:57.429Z,62.83
2022-08-24T02:50:26.537Z,63.15
2022-08-24T02:52:54.311Z,63.23
2022-08-24T02:55:22.178Z,63.30
2022-08-24T02:57:50.516Z,62.96
2022-08-24T03:00:23.831Z,63.46
2022-08-24T03:02:51.832Z,63.70
2022-08-24T03:05:20.883Z,63.30
2022-08-24T03:07:48.591Z,63.32
2022-08-24T03:10:16.902Z,63.01
2022-08-24T03:12:44.810Z,63.30
2022-08-24T03:15:13.597Z,63.68
2022-08-24T03:17:42.052Z,63.07
2022-08-24T03:20:14.432Z,64.06
2022-08-24T03:22:44.862Z,63.60
2022-08-24T03:25:14.052Z,63.90
2022-08-24T03:27:41.983Z,64.04
2022-08-24T03:30:13.692Z,63.87
2022-08-24T03:32:41.308Z,63.90
2022-08-24T03:35:10.754Z,63.70
2022-08-24T03:37:38.606Z,64.17
2022-08-24T03:40:22.798Z,63.90
2022-08-24T03:42:52.814Z,63.97
2022-08-24T03:45:21.786Z,63.74
2022-08-24T03:47:49.569Z,63.79
2022-08-24T03:50:17.611Z,64.22
2022-08-24T03:52:45.201Z,63.87
2022-08-24T03:55:16.031Z,64.10
2022-08-24T03:57:44.017Z,64.48
2022-08-24T04:00:13.784Z,63.65
2022-08-24T04:02:41.450Z,63.93
2022-08-24T04:05:10.761Z,63.50
2022-08-24T04:07:38.741Z,63.85
2022-08-24T04:10:07.330Z,63.93
2022-08-24T04:12:36.347Z,63.97
2022-08-24T04:15:04.264Z,64.05
2022-08-24T04:17:31.909Z,64.25
2022-08-24T04:19:59.687Z,64.27
2022-08-24T04:22:28.338Z,64.19
2022-08-24T04:24:56.555Z,64.04
2022-08-24T04:27:24.597Z,63.85
2022-08-24T04:29:53.604Z,63.83
2022-08-24T04:32:21.162Z,63.71
2022-08-24T04:34:49.149Z,64.41
2022-08-24T04:37:17.613Z,64.35
2022-08-24T04:39:47.551Z,63.72
2022-08-24T04:42:15.471Z,63.86
2022-08-24T04:44:43.164Z,64.64
2022-08-24T04:47:12.202Z,64.24
2022-08-24T04:49:40.227Z,63.89
2022-08-24T04:52:08.220Z,64.41
2022-08-24T04:54:35.953Z,64.29
2022-08-24T04:57:03.807Z,64.25
2022-08-24T04:59:31.515Z,64.77
2022-08-24T05:01:59.115Z,64.37
2022-08-24T05:04:28.471Z,64.08
2022-08-24T05:06:58.789Z,64.09
2022-08-24T05:09:26.452Z,64.33
2022-08-24T05:11:55.567Z,64.77
2022-08-24T05:14:27.961Z,64.15
2022-08-24T05:16:56.368Z,64.67
2022-08-24T05:19:24.675Z,64.30
2022-08-24T05:21:53.651Z,64.55
2022-08-24T05:24:21.794Z,64.25
2022-08-24T05:26:49.835Z,64.35
2022-08-24T05:29:19.003Z,63.31
2022-08-24T05:31:47.367Z,63.13
2022-08-24T05:34:15.234Z,61.09
2022-08-24T05:36:43.917Z,55.94
2022-08-24T05:39:14.990Z,55.43
2022-08-24T05:41:44.657Z,55.63
2022-08-24T05:44:13.092Z,61.16
2022-08-24T05:46:40.914Z,63.74
2022-08-24T05:49:09.172Z,64.06
2022-08-24T05:51:37.741Z,64.11
2022-08-24T05:54:06.350Z,64.71
2022-08-24T05:56:35.489Z,65.34
2022-08-24T05:59:03.257Z,65.35
2022-08-24T06:01:33.349Z,64.87
2022-08-24T06:04:01.629Z,65.68
2022-08-24T06:06:29.747Z,66.28
2022-08-24T06:09:00.045Z,65.80
2022-08-24T06:11:30.581Z,66.23
2022-08-24T06:14:01.946Z,66.87
2022-08-24T06:16:30.094Z,67.60
2022-08-24T06:18:58.058Z,67.78
2022-08-24T06:21:28.700Z,68.68
2022-08-24T06:23:57.139Z,68.35
2022-08-24T06:26:42.412Z,69.01
2022-08-24T06:29:11.769Z,69.95
2022-08-24T06:31:41.915Z,69.81
2022-08-24T06:34:10.570Z,69.47
2022-08-24T06:36:40.041Z,69.89
2022-08-24T06:39:08.744Z,70.64
2022-08-24T06:41:38.061Z,71.98
2022-08-24T06:44:06.118Z,72.01
2022-08-24T06:46:36.272Z,72.61
2022-08-24T06:49:04.279Z,71.72
2022-08-24T06:51:32.448Z,72.69
2022-08-24T06:54:00.304Z,71.86
2022-08-24T06:56:28.200Z,72.63
2022-08-24T06:58:55.864Z,72.11
2022-08-24T07:01:26.045Z,72.89
2022-08-24T07:03:55.640Z,72.42
2022-08-24T07:06:24.744Z,71.78
2022-08-24T07:08:52.857Z,70.84
2022-08-24T07:11:21.006Z,71.22
2022-08-24T07:13:50.194Z,71.43
2022-08-24T07:16:19.996Z,71.67
2022-08-24T07:18:50.152Z,71.64
2022-08-24T07:21:20.280Z,71.90
2022-08-24T07:23:48.365Z,72.26
2022-08-24T07:26:21.670Z,72.34
2022-08-24T07:28:50.350Z,71.07
2022-08-24T07:31:18.387Z,71.29
2022-08-24T07:33:46.152Z,72.59
2022-08-24T07:36:17.005Z,71.32
2022-08-24T07:38:52.742Z,72.08
2022-08-24T07:41:40.534Z,72.34
2022-08-24T07:44:09.675Z,72.03
2022-08-24T07:46:39.001Z,71.31
2022-08-24T07:49:12.544Z,71.66
2022-08-24T07:51:48.586Z,71.78
2022-08-24T07:54:17.598Z,70.88
2022-08-24T07:56:45.280Z,71.49
2022-08-24T07:59:13.616Z,70.75
2022-08-24T08:01:42.303Z,70.67
2022-08-24T08:04:11.128Z,70.91
2022-08-24T08:06:38.756Z,71.60
2022-08-24T08:09:06.886Z,71.46
2022-08-24T08:11:35.887Z,71.03
2022-08-24T08:14:03.530Z,69.94
2022-08-24T08:16:31.245Z,69.41
2022-08-24T08:19:14.295Z,69.97
2022-08-24T08:22:00.875Z,69.59
2022-08-24T08:24:28.683Z,68.61
2022-08-24T08:26:59.342Z,70.01
2022-08-24T08:29:27.812Z,69.28
2022-08-24T08:31:55.881Z,68.64
2022-08-24T08:34:23.805Z,68.59
2022-08-24T08:36:52.197Z,69.15
2022-08-24T08:39:22.237Z,69.41
2022-08-24T08:42:23.836Z,69.11
2022-08-24T08:45:05.164Z,68.12
2022-08-24T08:48:10.691Z,67.65
2022-08-24T08:50:58.245Z,67.59
2022-08-24T08:53:56.623Z,68.37
2022-08-24T08:56:35.513Z,65.84
2022-08-24T08:59:13.351Z,67.54
2022-08-24T09:01:54.482Z,66.24
2022-08-24T09:04:46.466Z,66.84
2022-08-24T09:07:28.153Z,65.16
2022-08-24T09:10:23.652Z,64.91
2022-08-24T09:13:05.564Z,65.08
2022-08-24T09:16:01.813Z,64.89
2022-08-24T09:18:46.554Z,63.58
2022-08-24T09:21:32.412Z,63.39
2022-08-24T09:24:11.685Z,63.71
2022-08-24T09:26:48.721Z,63.36
2022-08-24T09:29:23.234Z,63.34
2022-08-24T09:32:04.349Z,62.60
2022-08-24T09:34:46.175Z,61.96
2022-08-24T09:37:33.100Z,62.16
2022-08-24T09:40:08.716Z,62.27
2022-08-24T09:43:04.210Z,62.13
2022-08-24T09:45:49.325Z,61.42
2022-08-24T09:48:39.403Z,61.35
2022-08-24T09:51:45.578Z,61.55
2022-08-24T09:54:52.344Z,60.26
2022-08-24T09:57:59.531Z,60.88
2022-08-24T10:00:30.050Z,60.82
2022-08-24T10:03:04.041Z,61.09
2022-08-24T10:05:48.995Z,60.57
2022-08-24T10:08:30.069Z,61.11
2022-08-24T10:11:09.091Z,58.54
2022-08-24T10:13:48.188Z,59.39
2022-08-24T10:16:24.645Z,58.31
2022-08-24T10:19:04.502Z,58.97
2022-08-24T10:21:47.182Z,59.57
2022-08-24T10:24:41.449Z,58.85
2022-08-24T10:27:30.824Z,58.99
2022-08-24T10:30:15.282Z,58.53
2022-08-24T10:33:07.130Z,58.73
2022-08-24T10:35:39.395Z,59.62
2022-08-24T10:38:42.783Z,58.63
2022-08-24T10:41:46.892Z,57.81
2022-08-24T10:44:36.294Z,58.91
2022-08-24T10:47:13.101Z,57.96
2022-08-24T10:50:22.813Z,58.66
2022-08-24T10:53:23.711Z,57.86
2022-08-24T10:56:05.406Z,58.08
2022-08-24T10:58:56.872Z,55.67
2022-08-24T11:01:29.566Z,56.54
2022-08-24T11:04:02.009Z,56.75
2022-08-24T11:06:32.266Z,56.64
2022-08-24T11:09:06.651Z,56.17
2022-08-24T11:11:40.533Z,56.22
2022-08-24T11:14:10.979Z,56.92
2022-08-24T11:16:42.661Z,57.76
2022-08-24T11:19:14.104Z,57.89
2022-08-24T11:21:46.536Z,58.44
2022-08-24T11:24:28.934Z,57.33
2022-08-24T11:27:00.140Z,57.23
2022-08-24T11:29:31.569Z,57.99
2022-08-24T11:32:00.206Z,58.28
2022-08-24T11:34:37.743Z,58.86
2022-08-24T11:37:11.616Z,58.06
2022-08-24T11:39:40.664Z,58.04
2022-08-24T11:42:17.705Z,57.85
2022-08-24T11:44:50.870Z,57.89
2022-08-24T11:47:36.609Z,58.44
2022-08-24T11:50:15.529Z,58.26
2022-08-24T11:52:53.733Z,57.41
2022-08-24T11:55:45.369Z,57.50
2022-08-24T11:58:27.390Z,57.88
2022-08-24T12:01:01.960Z,57.72
2022-08-24T12:03:43.496Z,57.55
2022-08-24T12:06:23.515Z,58.26
2022-08-24T12:09:06.182Z,58.64
2022-08-24T12:11:41.736Z,58.24
2022-08-24T12:14:16.740Z,58.58
2022-08-24T12:16:51.634Z,57.23
2022-08-24T12:19:22.770Z,56.50
2022-08-24T12:21:55.785Z,55.09
2022-08-24T12:24:30.339Z,54.86
2022-08-24T12:27:03.853Z,55.22
2022-08-24T12:29:35.884Z,55.02
2022-08-24T12:32:08.275Z,54.04
2022-08-24T12:34:47.379Z,53.35
2022-08-24T12:37:24.081Z,53.38
2022-08-24T12:40:01.132Z,53.93
2022-08-24T12:42:39.340Z,52.23
2022-08-24T12:45:11.764Z,51.75
2022-08-24T12:47:48.498Z,52.54
2022-08-24T12:50:25.723Z,52.48
2022-08-24T12:53:23.763Z,51.98
2022-08-24T12:56:14.720Z,53.22
2022-08-24T12:59:01.922Z,54.23
2022-08-24T13:01:35.834Z,53.53
2022-08-24T13:04:12.401Z,53.76
2022-08-24T13:06:44.711Z,53.70
2022-08-24T13:09:27.808Z,53.85
2022-08-24T13:11:58.413Z,53.79
2022-08-24T13:14:30.406Z,53.85
2022-08-24T13:17:14.638Z,53.95
2022-08-24T13:19:46.128Z,54.33
2022-08-24T13:22:46.562Z,54.60
2022-08-24T13:25:49.902Z,54.15
2022-08-24T13:28:44.186Z,53.13
2022-08-24T13:31:34.095Z,52.65
2022-08-24T13:34:39.019Z,52.47
2022-08-24T13:37:16.863Z,52.97
2022-08-24T13:39:56.221Z,52.72
2022-08-24T13:42:39.784Z,52.85
2022-08-24T13:45:25.899Z,52.26
2022-08-24T13:48:11.661Z,51.87
2022-08-24T13:50:47.830Z,52.21
2022-08-24T13:53:38.478Z,51.17
2022-08-24T13:56:32.525Z,51.46
2022-08-24T13:59:09.827Z,50.97
2022-08-24T14:01:50.487Z,52.27
2022-08-24T14:04:35.675Z,51.53
2022-08-24T14:07:13.571Z,50.71
2022-08-24T14:09:58.749Z,50.45
2022-08-24T14:12:45.137Z,51.12
2022-08-24T14:15:24.108Z,50.60
2022-08-24T14:17:58.020Z,49.29
2022-08-24T14:20:57.321Z,48.68
2022-08-24T14:23:31.207Z,49.45
2022-08-24T14:26:52.307Z,49.70
2022-08-24T14:29:33.677Z,49.73
2022-08-24T14:32:55.550Z,50.92
2022-08-24T14:35:36.446Z,50.32
2022-08-24T14:38:23.401Z,51.14
2022-08-24T14:41:07.641Z,50.66
2022-08-24T14:43:53.041Z,50.98
2022-08-24T14:46:29.348Z,51.10
2022-08-24T14:49:13.857Z,50.74
2022-08-24T14:51:54.532Z,50.47
2022-08-24T14:54:32.646Z,49.89
2022-08-24T14:57:14.715Z,49.94
2022-08-24T14:59:55.103Z,50.08
2022-08-24T15:02:45.298Z,48.74
2022-08-24T15:05:21.915Z,49.59
2022-08-24T15:07:57.873Z,50.50
2022-08-24T15:10:31.394Z,51.39
2022-08-24T15:13:04.133Z,51.02
2022-08-24T15:15:36.541Z,51.22
2022-08-24T15:18:10.813Z,51.60
2022-08-24T15:21:00.886Z,51.40
2022-08-24T15:23:53.055Z,51.67
2022-08-24T15:26:34.027Z,51.45
2022-08-24T15:29:13.171Z,51.15
2022-08-24T15:31:41.698Z,51.47
2022-08-24T15:34:10.336Z,51.24
2022-08-24T15:36:38.056Z,51.07
2022-08-24T15:39:07.050Z,50.58
2022-08-24T15:41:41.890Z,49.79
2022-08-24T15:44:24.394Z,48.80
2022-08-24T15:46:55.393Z,48.73
2022-08-24T15:49:27.035Z,48.11
2022-08-24T15:51:57.632Z,48.89
2022-08-24T15:54:33.263Z,48.58
2022-08-24T15:57:04.883Z,48.40
2022-08-24T15:59:47.177Z,48.36
2022-08-24T16:02:28.614Z,48.84
2022-08-24T16:05:03.438Z,49.10
2022-08-24T16:07:34.727Z,49.18
2022-08-24T16:10:08.674Z,50.30
2022-08-24T16:12:37.889Z,50.58
2022-08-24T16:15:18.248Z,50.44
2022-08-24T16:17:51.551Z,51.43
2022-08-24T16:20:33.909Z,51.54
2022-08-24T16:23:04.750Z,52.09
2022-08-24T16:25:34.694Z,52.14
2022-08-24T16:28:09.822Z,51.68
2022-08-24T16:30:50.107Z,51.46
2022-08-24T16:33:39.943Z,51.80
2022-08-24T16:36:14.687Z,51.60
2022-08-24T16:38:47.171Z,51.60
2022-08-24T16:41:18.811Z,51.49
2022-08-24T16:43:48.729Z,51.43
2022-08-24T16:46:21.674Z,51.88
2022-08-24T16:48:49.583Z,51.27
2022-08-24T16:51:17.255Z,52.30
2022-08-24T16:53:44.825Z,52.45
2022-08-24T16:56:16.522Z,52.53
2022-08-24T16:58:46.383Z,52.21
2022-08-24T17:01:16.309Z,52.70
2022-08-24T17:03:43.887Z,52.71
2022-08-24T17:06:12.592Z,52.06
2022-08-24T17:08:41.162Z,52.85
2022-08-24T17:11:09.188Z,53.68
2022-08-24T17:13:49.290Z,53.57
2022-08-24T17:16:20.042Z,53.38
2022-08-24T17:18:47.844Z,53.16
2022-08-24T17:21:15.509Z,53.88
2022-08-24T17:23:43.930Z,53.85
2022-08-24T17:26:20.439Z,53.63
2022-08-24T17:28:51.609Z,53.32
2022-08-24T17:31:20.938Z,53.92
2022-08-24T17:33:48.520Z,53.79
2022-08-24T17:36:17.720Z,54.21
2022-08-24T17:38:52.964Z,54.18
2022-08-24T17:41:23.725Z,54.31
2022-08-24T17:43:51.795Z,55.02
2022-08-24T17:46:21.993Z,54.93
2022-08-24T17:48:49.853Z,54.66
2022-08-24T17:51:18.067Z,55.35
2022-08-24T17:53:45.660Z,55.79
2022-08-24T17:56:14.613Z,56.18
2022-08-24T17:59:00.618Z,56.40
2022-08-24T18:01:30.460Z,56.60
2022-08-24T18:03:58.156Z,56.58
2022-08-24T18:06:27.838Z,57.24
2022-08-24T18:08:56.678Z,57.45
2022-08-24T18:11:26.228Z,57.91
2022-08-24T18:13:54.667Z,57.49
2022-08-24T18:16:24.489Z,58.02
2022-08-24T18:18:54.008Z,58.05
2022-08-24T18:21:22.559Z,57.97
2022-08-24T18:23:51.060Z,58.38
2022-08-24T18:26:25.164Z,59.07
2022-08-24T18:29:00.360Z,58.71
2022-08-24T18:31:29.839Z,59.37
2022-08-24T18:33:58.865Z,58.84
2022-08-24T18:36:26.550Z,59.46
2022-08-24T18:38:54.242Z,59.38
2022-08-24T18:41:22.284Z,59.43
2022-08-24T18:43:49.902Z,59.30
2022-08-24T18:46:17.526Z,59.25
2022-08-24T18:48:45.176Z,59.31
2022-08-24T18:51:17.010Z,59.96
2022-08-24T18:53:44.606Z,60.04
2022-08-24T18:56:12.844Z,60.43
2022-08-24T18:58:40.564Z,60.53
2022-08-24T19:01:08.803Z,61.13
2022-08-24T19:03:36.758Z,61.13
2022-08-24T19:06:04.426Z,61.07
2022-08-24T19:08:33.492Z,61.18
2022-08-24T19:11:01.189Z,61.80
2022-08-24T19:13:29.118Z,61.49
2022-08-24T19:15:58.053Z,62.06
2022-08-24T19:18:26.379Z,62.15
2022-08-24T19:20:57.480Z,62.07
2022-08-24T19:23:29.288Z,62.42
2022-08-24T19:25:58.587Z,62.64
2022-08-24T19:28:27.504Z,62.70
2022-08-24T19:30:56.926Z,62.84
2022-08-24T19:33:27.763Z,62.93
2022-08-24T19:35:56.370Z,62.91
2022-08-24T19:38:26.027Z,62.96
2022-08-24T19:40:55.452Z,62.98
2022-08-24T19:43:26.937Z,63.55
2022-08-24T19:46:06.181Z,63.18
2022-08-24T19:48:36.305Z,63.45
2022-08-24T19:51:05.616Z,63.01
2022-08-24T19:53:36.413Z,63.55
2022-08-24T19:56:04.837Z,63.29
2022-08-24T19:58:40.662Z,63.56
2022-08-24T20:01:13.373Z,63.52
2022-08-24T20:03:41.481Z,63.66
2022-08-24T20:06:09.185Z,63.80
2022-08-24T20:08:37.228Z,64.08
2022-08-24T20:11:05.107Z,64.34
2022-08-24T20:13:32.731Z,64.39
2022-08-24T20:16:02.084Z,64.25
2022-08-24T20:18:31.681Z,64.18
2022-08-24T20:21:00.007Z,64.34
2022-08-24T20:23:29.491Z,64.07
2022-08-24T20:25:58.471Z,64.38
2022-08-24T20:28:31.122Z,64.57
2022-08-24T20:31:02.134Z,64.73
2022-08-24T20:33:29.916Z,65.04
2022-08-24T20:35:57.890Z,64.86
2022-08-24T20:38:26.539Z,64.81
2022-08-24T20:40:59.635Z,65.49
2022-08-24T20:43:27.416Z,65.45
2022-08-24T20:45:55.775Z,65.32
2022-08-24T20:48:29.315Z,65.15
2022-08-24T20:50:57.578Z,65.11
2022-08-24T20:53:25.786Z,65.56
2022-08-24T20:55:54.825Z,64.98
2022-08-24T20:58:23.826Z,65.30
2022-08-24T21:00:51.487Z,65.11
2022-08-24T21:03:19.953Z,65.54
2022-08-24T21:05:52.220Z,65.45
2022-08-24T21:08:20.635Z,65.41
2022-08-24T21:10:48.441Z,65.32
2022-08-24T21:13:16.237Z,66.38
2022-08-24T21:15:44.055Z,65.72
2022-08-24T21:18:12.391Z,65.36
2022-08-24T21:20:49.253Z,66.28
2022-08-24T21:23:31.459Z,64.85
2022-08-24T21:26:00.172Z,65.14
2022-08-24T21:28:28.005Z,65.55
2022-08-24T21:30:55.605Z,65.92
2022-08-24T21:33:40.833Z,64.89
2022-08-24T21:36:09.282Z,65.69
2022-08-24T21:38:38.414Z,64.92
2022-08-24T21:41:07.014Z,63.49
2022-08-24T21:43:34.643Z,65.66
2022-08-24T21:46:02.244Z,66.02
2022-08-24T21:48:29.976Z,64.45
2022-08-24T21:50:57.536Z,65.30
2022-08-24T21:53:28.552Z,66.03
2022-08-24T21:55:58.646Z,66.13
2022-08-24T21:58:26.553Z,66.48
2022-08-24T22:00:54.526Z,66.01
2022-08-24T22:03:31.665Z,66.17
2022-08-24T22:06:08.519Z,66.25
2022-08-24T22:08:36.399Z,66.72
2022-08-24T22:11:06.229Z,66.75
2022-08-24T22:13:34.195Z,66.35
2022-08-24T22:16:01.915Z,66.83
2022-08-24T22:18:29.662Z,65.78
2022-08-24T22:20:57.592Z,66.16
2022-08-24T22:23:25.176Z,66.79
2022-08-24T22:25:53.692Z,65.82
2022-08-24T22:28:24.325Z,67.02
2022-08-24T22:30:51.911Z,66.44
2022-08-24T22:33:19.732Z,66.18
2022-08-24T22:35:47.292Z,65.40
2022-08-24T22:38:14.969Z,67.29
2022-08-24T22:40:44.239Z,66.01
2022-08-24T22:43:12.624Z,65.37
2022-08-24T22:45:41.538Z,66.08
2022-08-24T22:48:09.613Z,66.59
2022-08-24T22:50:37.217Z,66.56
2022-08-24T22:53:05.151Z,66.68
2022-08-24T22:55:33.366Z,65.54
2022-08-24T22:58:01.891Z,66.93
2022-08-24T23:00:29.440Z,65.76
2022-08-24T23:02:58.478Z,66.32
2022-08-24T23:05:26.020Z,66.34
2022-08-24T23:07:53.571Z,67.32
2022-08-24T23:10:21.269Z,66.09
2022-08-24T23:12:49.070Z,66.42
2022-08-24T23:15:16.865Z,66.40
2022-08-24T23:17:44.405Z,64.67
2022-08-24T23:20:12.894Z,66.97
2022-08-24T23:22:42.060Z,66.87
2022-08-24T23:25:12.918Z,66.19
2022-08-24T23:27:41.447Z,66.87
2022-08-24T23:30:12.646Z,66.44
2022-08-24T23:32:40.924Z,67.37
2022-08-24T23:35:09.421Z,66.50
2022-08-24T23:37:38.361Z,65.88
2022-08-24T23:40:07.105Z,66.04
2022-08-24T23:42:34.755Z,66.29
2022-08-24T23:45:02.413Z,66.38
2022-08-24T23:47:29.950Z,66.43
2022-08-24T23:50:03.364Z,66.00
2022-08-24T23:52:36.814Z,67.08
2022-08-24T23:55:19.996Z,65.71
2022-08-24T23:57:49.411Z,67.03
